Дата Пункты Температура Давл., мм. Влажн., % Ветер Погодные явления
Воздуха Воды Направл. Скорость
13.05.19 09:00 Одесса 18.0 14.0 762 69 Пн 2 09 ГОДИН
13.05.19 06:00 Одесса 14.0 13.0 762 79 Пн-З 2 06 ГОДИН
13.05.19 03:00 Одесса 13.0 13.0 762 80 Пн-З 2 03 ГОДИНИ
12.05.19 09:00 Одесса 14.0 13.0 762 78 З 2 21 ГОДИНУ
12.05.19 06:00 Одесса 17.0 13.0 762 64 Пд 2 18 ГОДИН
12.05.19 03:00 Одесса 18.0 13.0 762 66 Пд-С 2 15 ГОДИН
12.05.19 12:00 Одесса 16.0 13.0 762 82 С 2 12 ГОДИН
12.05.19 09:00 Одесса 14.0 13.0 761 83 Пн-С 2 09 ГОДИН
12.05.19 06:00 Одесса 13.0 12.0 761 92 С 1 06 ГОДИН
12.05.19 03:00 Одесса 12.0 12.0 760 97 Пд-С 2 03 ГОДИНИ
11.05.19 09:00 Одесса 13.0 13.0 759 96 Пд-С 2 21 ГОДИНУ
11.05.19 06:00 Одесса 13.0 13.0 758 93 Пд-С 1 18 ГОДИН
11.05.19 03:00 Одесса 14.0 13.0 757 92 С 3 15 ГОДИН
11.05.19 12:00 Одесса 12.0 13.0 757 95 С 2 12 ГОДИН
11.05.19 09:00 Одесса 12.0 13.0 756 95 С 2 09 ГОДИН
11.05.19 06:00 Одесса 12.0 12.0 755 97 Пн-С 5 06 ГОДИН
11.05.19 03:00 Одесса 12.0 12.0 755 97 С 1 03 ГОДИНИ
10.05.19 09:00 Одесса 12.0 12.0 755 94 Пд 2 21 ГОДИНУ
10.05.19 06:00 Одесса 13.0 12.0 755 89 Пд 4 18 ГОДИН
10.05.19 03:00 Одесса 14.0 12.0 755 80 Пд 4 15 ГОДИН
Количество строк
1 2 3 4 5 6 7 8 9 10
Page 4 of 491